Time;durP1;ratioP1;P1;durP2;ratioP2;P2;SDS_P1;SDS_P2;PMS_P1;PMS_P2;Temp;Humidity;BMP_temperature;BMP_pressure;BME280_temperature;BME280_humidity;BME280_pressure;Samples;Min_cycle;Max_cycle;Signal;HPM_P1;HPM_P2
2022/07/14 00:02:20;;;;;;;7.70;5.20;;;18.80;99.90;;;;;;2613027;54;20129;-73
2022/07/14 00:08:08;;;;;;;9.00;6.20;;;18.50;99.90;;;;;;2613639;54;20125;-73
2022/07/14 00:24:19;;;;;;;8.23;5.97;;;18.30;99.90;;;;;;2611867;54;20474;-74
2022/07/14 00:30:07;;;;;;;11.33;6.40;;;18.20;99.90;;;;;;2612229;54;20137;-73
2022/07/14 00:35:54;;;;;;;11.87;5.90;;;18.10;99.90;;;;;;2612830;39;20823;-74
2022/07/14 00:41:41;;;;;;;10.93;6.80;;;18.10;99.90;;;;;;2611637;54;20134;-73
2022/07/14 00:47:28;;;;;;;14.73;7.17;;;18.00;99.90;;;;;;2612615;54;20138;-73
2022/07/14 00:53:16;;;;;;;7.37;6.47;;;18.00;99.90;;;;;;2611826;39;20589;-73
2022/07/14 00:59:04;;;;;;;9.63;6.90;;;17.90;99.90;;;;;;2612116;54;20182;-73
2022/07/14 01:04:51;;;;;;;11.20;6.53;;;17.80;99.90;;;;;;2612665;54;20133;-73
2022/07/14 01:10:39;;;;;;;8.90;6.83;;;17.70;99.90;;;;;;2614029;54;20177;-74
2022/07/14 01:26:37;;;;;;;14.30;7.30;;;17.30;99.90;;;;;;2610875;54;20482;-75
2022/07/14 01:32:24;;;;;;;12.47;6.33;;;17.20;99.90;;;;;;2612344;54;20172;-74
2022/07/14 01:38:11;;;;;;;15.33;6.47;;;17.20;99.90;;;;;;2610872;54;20713;-73
2022/07/14 01:43:59;;;;;;;16.20;7.03;;;17.30;99.90;;;;;;2612510;54;20125;-73
2022/07/14 01:49:47;;;;;;;16.97;6.00;;;17.30;99.90;;;;;;2611750;46;20437;-74
2022/07/14 01:58:55;;;;;;;13.87;6.70;;;17.30;99.90;;;;;;2612617;46;20429;-74
2022/07/14 02:04:43;;;;;;;11.27;5.97;;;17.50;99.90;;;;;;2612482;54;20156;-74
2022/07/14 02:19:58;;;;;;;8.50;4.67;;;17.60;99.90;;;;;;2611252;54;20962;-73
2022/07/14 02:25:47;;;;;;;10.63;5.43;;;17.20;99.90;;;;;;2611581;54;20175;-74
2022/07/14 02:31:35;;;;;;;13.93;6.20;;;17.20;99.90;;;;;;2613958;39;20572;-74
2022/07/14 02:37:22;;;;;;;21.50;7.70;;;17.10;99.90;;;;;;2614401;54;20406;-76
2022/07/14 02:43:10;;;;;;;16.43;5.47;;;17.00;99.90;;;;;;2613770;54;20269;-72
2022/07/14 02:48:58;;;;;;;12.93;5.93;;;17.10;99.90;;;;;;2612701;54;20144;-74
2022/07/14 02:54:45;;;;;;;12.40;5.87;;;17.00;99.90;;;;;;2614574;54;20156;-73
2022/07/14 03:00:33;;;;;;;12.53;5.90;;;17.10;99.90;;;;;;2612868;46;20283;-75
2022/07/14 03:06:21;;;;;;;18.07;6.37;;;17.00;99.90;;;;;;2610319;54;20401;-76
2022/07/14 03:12:09;;;;;;;11.70;5.43;;;17.00;99.90;;;;;;2612251;54;20145;-75
2022/07/14 03:18:07;;;;;;;16.20;5.77;;;17.10;99.90;;;;;;2612861;47;20143;-75
2022/07/14 03:23:54;;;;;;;16.30;6.83;;;17.00;99.90;;;;;;2611424;54;20144;-75
2022/07/14 03:29:41;;;;;;;18.60;6.53;;;17.10;99.90;;;;;;2611673;54;20162;-76
2022/07/14 03:35:29;;;;;;;14.67;6.80;;;17.00;99.90;;;;;;2610293;54;20413;-75
2022/07/14 03:41:16;;;;;;;18.97;5.87;;;17.00;99.90;;;;;;2609995;54;20137;-75
2022/07/14 03:47:03;;;;;;;14.37;6.23;;;16.90;99.90;;;;;;2610296;54;20134;-76
2022/07/14 03:52:51;;;;;;;17.50;6.20;;;16.80;99.90;;;;;;2609911;54;20126;-77
2022/07/14 03:58:39;;;;;;;17.10;5.97;;;16.70;99.90;;;;;;2612081;54;20133;-75
2022/07/14 04:04:26;;;;;;;17.80;5.50;;;16.50;99.90;;;;;;2612896;54;20238;-75
2022/07/14 04:10:14;;;;;;;16.10;6.73;;;16.50;99.90;;;;;;2613603;47;20543;-76
2022/07/14 04:26:21;;;;;;;21.30;6.13;;;16.70;99.90;;;;;;2612006;54;20516;-76
2022/07/14 04:32:10;;;;;;;18.50;7.20;;;16.80;99.90;;;;;;2609095;54;20120;-76
2022/07/14 04:37:57;;;;;;;24.93;5.60;;;16.90;99.90;;;;;;2613278;39;21006;-76
2022/07/14 04:43:45;;;;;;;22.13;7.70;;;16.60;99.90;;;;;;2610669;54;20133;-75
2022/07/14 04:55:38;;;;;;;10.80;6.50;;;16.60;99.90;;;;;;2606962;46;20392;-76
2022/07/14 05:01:26;;;;;;;12.83;5.27;;;16.70;99.90;;;;;;2611171;54;20505;-75
2022/07/14 05:07:14;;;;;;;12.73;6.50;;;16.90;99.90;;;;;;2614131;39;20592;-75
2022/07/14 05:13:02;;;;;;;20.53;5.93;;;16.90;99.90;;;;;;2612634;54;20285;-77
2022/07/14 05:22:12;;;;;;;14.57;5.97;;;17.10;99.90;;;;;;2607095;47;20491;-75
2022/07/14 05:28:00;;;;;;;12.73;5.90;;;17.20;99.90;;;;;;2611305;54;20423;-82
2022/07/14 05:33:48;;;;;;;10.40;6.07;;;17.90;99.90;;;;;;2611342;39;20555;-77
2022/07/14 05:39:37;;;;;;;11.63;6.00;;;18.40;99.90;;;;;;2611622;54;20426;-81
2022/07/14 05:45:25;;;;;;;16.93;5.57;;;19.20;99.90;;;;;;2613670;54;20381;-80
2022/07/14 05:51:27;;;;;;;12.57;6.20;;;19.40;99.80;;;;;;2605643;54;20165;-78
2022/07/14 05:57:15;;;;;;;13.93;6.13;;;19.90;87.50;;;;;;2607040;54;20127;-78
2022/07/14 06:03:02;;;;;;;15.47;5.30;;;20.60;79.40;;;;;;2609268;54;20131;-78
2022/07/14 06:08:49;;;;;;;15.70;6.43;;;20.10;78.60;;;;;;2612936;54;20136;-78
2022/07/14 06:14:37;;;;;;;15.50;6.50;;;20.00;86.00;;;;;;2612769;54;20146;-78
2022/07/14 06:20:44;;;;;;;15.40;6.17;;;20.10;84.70;;;;;;2611348;39;20684;-78
2022/07/14 06:30:08;;;;;;;16.93;6.37;;;20.30;81.40;;;;;;2612556;54;20666;-79
2022/07/14 06:35:55;;;;;;;13.30;6.20;;;21.40;54.10;;;;;;2612544;54;21092;-78
2022/07/14 06:41:42;;;;;;;17.97;6.53;;;22.00;43.70;;;;;;2612374;54;20155;-78
2022/07/14 06:47:30;;;;;;;9.20;5.87;;;22.50;32.60;;;;;;2612749;54;20150;-77
2022/07/14 06:53:18;;;;;;;11.27;5.80;;;23.50;24.90;;;;;;2612229;54;20403;-77
2022/07/14 06:59:05;;;;;;;11.53;6.17;;;23.10;22.90;;;;;;2612601;54;20209;-77
2022/07/14 07:10:59;;;;;;;18.87;8.30;;;21.30;41.90;;;;;;2613771;54;20508;-77
2022/07/14 07:16:49;;;;;;;9.70;5.13;;;21.30;38.80;;;;;;2612120;54;20140;-76
2022/07/14 07:22:38;;;;;;;8.53;4.80;;;20.90;43.60;;;;;;2613744;54;20432;-77
2022/07/14 07:28:26;;;;;;;12.23;4.77;;;21.20;48.40;;;;;;2613814;39;20882;-78
2022/07/14 07:34:13;;;;;;;12.03;5.00;;;21.80;33.10;;;;;;2613589;54;20153;-78
2022/07/14 07:40:01;;;;;;;9.87;5.47;;;24.30;14.20;;;;;;2614027;54;20142;-77
2022/07/14 07:45:49;;;;;;;10.23;6.13;;;25.50;5.40;;;;;;2612419;54;20239;-78
2022/07/14 07:51:38;;;;;;;13.30;6.87;;;25.60;1.00;;;;;;2614027;54;20433;-76
2022/07/14 07:57:26;;;;;;;5.80;5.07;;;25.20;1.30;;;;;;2611384;54;21096;-78
2022/07/14 08:03:14;;;;;;;7.53;4.97;;;26.10;1.00;;;;;;2614919;54;20131;-79
2022/07/14 08:09:03;;;;;;;7.60;4.80;;;25.70;1.00;;;;;;2615052;54;20265;-78
2022/07/14 08:14:51;;;;;;;5.13;4.70;;;26.90;1.00;;;;;;2614399;54;20393;-77
2022/07/14 08:20:46;;;;;;;8.10;5.30;;;27.20;1.00;;;;;;2612821;54;20417;-77
2022/07/14 08:26:33;;;;;;;9.00;5.47;;;26.60;1.00;;;;;;2611346;54;20116;-77
2022/07/14 08:42:59;;;;;;;5.37;4.87;;;26.60;1.00;;;;;;2613212;39;20920;-77
2022/07/14 08:48:47;;;;;;;4.90;4.50;;;27.00;1.00;;;;;;2611816;46;20172;-76
2022/07/14 08:54:36;;;;;;;5.53;5.03;;;26.40;1.00;;;;;;2612618;54;20370;-77
2022/07/14 09:00:23;;;;;;;5.20;4.70;;;26.40;1.00;;;;;;2612094;54;20412;-76
2022/07/14 09:06:12;;;;;;;5.97;5.00;;;26.80;1.00;;;;;;2611055;54;20159;-78
2022/07/14 09:12:05;;;;;;;12.97;5.20;;;28.00;1.00;;;;;;2611365;39;20774;-76
2022/07/14 09:24:37;;;;;;;5.73;5.10;;;27.30;1.00;;;;;;2614183;54;20390;-77
2022/07/14 09:30:26;;;;;;;7.67;5.10;;;28.10;1.00;;;;;;2612820;54;20648;-77
2022/07/14 09:36:28;;;;;;;8.20;5.50;;;27.50;1.00;;;;;;2613644;54;20443;-77
2022/07/14 09:42:17;;;;;;;6.40;5.70;;;28.00;1.00;;;;;;2611690;39;21332;-76
2022/07/14 09:48:11;;;;;;;7.87;5.10;;;28.10;1.00;;;;;;2613853;54;20429;-76
2022/07/14 09:53:59;;;;;;;4.90;4.50;;;27.00;1.00;;;;;;2613912;54;20391;-77
2022/07/14 10:06:16;;;;;;;6.17;5.07;;;26.20;1.00;;;;;;2614053;54;21061;-76
2022/07/14 10:12:05;;;;;;;6.57;5.27;;;27.50;1.00;;;;;;2614676;39;20628;-78
2022/07/14 10:24:39;;;;;;;7.13;5.10;;;28.10;1.00;;;;;;2614817;39;20505;-76
2022/07/14 10:43:19;;;;;;;7.03;5.53;;;28.40;1.00;;;;;;2612670;54;20394;-77
2022/07/14 10:49:09;;;;;;;12.33;5.67;;;28.80;1.00;;;;;;2615093;54;20409;-77
2022/07/14 10:55:16;;;;;;;5.93;5.53;;;29.20;1.00;;;;;;2614434;39;20874;-77
2022/07/14 11:01:05;;;;;;;6.07;5.67;;;29.20;1.00;;;;;;2613374;46;20452;-77
2022/07/14 11:38:26;;;;;;;6.60;6.00;;;29.20;1.00;;;;;;2612886;54;20506;-77
2022/07/14 11:51:24;;;;;;;7.53;5.90;;;29.30;1.00;;;;;;2612593;39;20918;-77
2022/07/14 12:00:33;;;;;;;6.30;5.80;;;28.90;1.00;;;;;;2613528;54;20410;-78
2022/07/14 12:06:20;;;;;;;5.23;4.83;;;29.70;1.00;;;;;;2614306;54;20279;-78
2022/07/14 12:12:08;;;;;;;5.10;4.70;;;29.40;1.00;;;;;;2610270;54;20374;-77
2022/07/14 12:25:16;;;;;;;5.33;4.63;;;27.60;1.00;;;;;;2612694;54;20406;-77
2022/07/14 12:27:42;;;;;;;6.03;5.60;;;28.40;1.00;;;;;;2613696;54;20502;-77
2022/07/14 12:33:37;;;;;;;5.50;5.10;;;28.90;1.00;;;;;;2613274;46;20450;-78
2022/07/14 12:39:25;;;;;;;7.47;5.53;;;28.10;1.00;;;;;;2613046;54;20558;-76
2022/07/14 12:45:13;;;;;;;5.33;4.93;;;27.90;1.00;;;;;;2610068;54;20432;-77
2022/07/14 12:51:21;;;;;;;5.57;5.03;;;27.60;1.00;;;;;;2614506;54;20183;-79
2022/07/14 12:57:23;;;;;;;10.10;5.40;;;27.50;1.00;;;;;;2613579;54;20442;-78
2022/07/14 13:03:16;;;;;;;5.07;4.77;;;29.00;1.00;;;;;;2612599;54;20406;-77
2022/07/14 13:15:37;;;;;;;5.77;5.10;;;28.10;1.00;;;;;;2614632;39;20752;-77
2022/07/14 13:21:56;;;;;;;5.57;5.27;;;27.80;1.00;;;;;;2613038;54;20188;-77
2022/07/14 13:27:44;;;;;;;6.57;5.40;;;28.70;1.00;;;;;;2612553;54;20408;-76
2022/07/14 13:33:32;;;;;;;5.27;4.97;;;;;;;;;;2614225;54;21144;-77
2022/07/14 13:39:24;;;;;;;5.50;4.93;;;27.10;1.00;;;;;;2614682;54;20500;-77
2022/07/14 13:45:11;;;;;;;5.50;5.10;;;26.50;1.00;;;;;;2613911;54;20911;-77
2022/07/14 13:57:06;;;;;;;5.50;5.10;;;27.70;1.00;;;;;;2613876;54;20632;-77
2022/07/14 14:09:00;;;;;;;5.03;4.73;;;27.20;1.00;;;;;;2613455;54;20371;-77
2022/07/14 14:14:48;;;;;;;4.87;4.57;;;26.90;1.00;;;;;;2613429;54;21007;-77
2022/07/14 14:20:51;;;;;;;6.07;5.07;;;27.50;1.00;;;;;;2612625;54;20763;-78
2022/07/14 14:26:38;;;;;;;5.27;4.77;;;27.60;1.00;;;;;;2613426;54;20705;-78
2022/07/14 14:32:33;;;;;;;5.53;5.13;;;27.60;1.00;;;;;;2612556;54;20146;-79
2022/07/14 14:38:20;;;;;;;6.50;5.00;;;27.70;1.00;;;;;;2612458;54;20131;-76
2022/07/14 14:44:07;;;;;;;6.60;5.93;;;;;;;;;;2611681;54;20223;-77
2022/07/14 15:00:08;;;;;;;5.77;5.27;;;27.50;1.00;;;;;;2611140;54;20446;-79
2022/07/14 15:05:55;;;;;;;6.30;4.93;;;27.20;1.00;;;;;;2612267;54;20356;-80
2022/07/14 15:11:42;;;;;;;5.20;4.70;;;25.60;1.00;;;;;;2610081;54;20140;-76
2022/07/14 15:17:30;;;;;;;6.87;4.87;;;26.00;1.00;;;;;;2610902;54;20151;-79
2022/07/14 15:23:17;;;;;;;5.67;4.60;;;27.00;1.00;;;;;;2612014;54;20393;-79
2022/07/14 15:29:04;;;;;;;5.33;4.83;;;26.70;1.00;;;;;;2612527;54;20135;-78
2022/07/14 15:34:52;;;;;;;9.50;8.67;;;25.50;1.00;;;;;;2614372;54;20708;-77
2022/07/14 15:46:45;;;;;;;5.03;4.63;;;25.80;1.00;;;;;;2612634;54;20459;-78
2022/07/14 15:52:34;;;;;;;5.87;5.37;;;26.10;1.00;;;;;;2612712;54;20122;-78
2022/07/14 15:58:22;;;;;;;6.00;5.50;;;26.90;1.00;;;;;;2615258;39;20750;-77
2022/07/14 16:04:09;;;;;;;4.70;4.50;;;26.50;1.00;;;;;;2613436;54;20151;-80
2022/07/14 16:09:57;;;;;;;5.73;5.20;;;26.10;1.00;;;;;;2613430;54;20160;-77
2022/07/14 16:15:45;;;;;;;6.73;4.73;;;26.40;1.00;;;;;;2613635;54;20126;-78
2022/07/14 16:21:33;;;;;;;5.27;4.87;;;26.90;1.00;;;;;;2612168;54;20739;-79
2022/07/14 16:27:21;;;;;;;5.47;5.07;;;27.70;1.00;;;;;;2614124;54;20301;-78
2022/07/14 16:33:08;;;;;;;5.20;4.77;;;26.60;1.00;;;;;;2613179;54;20123;-77
2022/07/14 16:38:56;;;;;;;5.50;5.00;;;26.30;1.00;;;;;;2613245;39;20474;-76
2022/07/14 16:44:44;;;;;;;5.13;4.83;;;26.70;1.00;;;;;;2613035;54;20533;-78
2022/07/14 16:50:32;;;;;;;6.37;4.80;;;;;;;;;;2612590;39;20532;-79
2022/07/14 16:56:21;;;;;;;5.30;4.80;;;24.20;1.00;;;;;;2613527;54;20379;-77
2022/07/14 17:02:09;;;;;;;14.07;5.50;;;24.30;1.00;;;;;;2612377;54;20452;-77
2022/07/14 17:07:57;;;;;;;5.80;4.90;;;24.90;1.00;;;;;;2612852;54;20668;-77
2022/07/14 17:13:45;;;;;;;5.83;5.00;;;26.00;1.00;;;;;;2613423;54;20130;-77
2022/07/14 17:22:56;;;;;;;9.73;5.27;;;24.70;1.00;;;;;;2612402;54;20409;-77
2022/07/14 17:28:45;;;;;;;4.50;4.23;;;24.90;1.00;;;;;;2613369;46;20419;-78
2022/07/14 17:34:33;;;;;;;4.70;4.40;;;24.10;1.00;;;;;;2610573;54;20396;-77
2022/07/14 17:40:21;;;;;;;7.90;4.60;;;24.30;1.00;;;;;;2613927;54;20160;-79
2022/07/14 17:46:09;;;;;;;5.13;4.73;;;23.60;1.00;;;;;;2614829;54;20181;-77
2022/07/14 17:58:03;;;;;;;5.37;5.03;;;23.10;1.00;;;;;;2613873;31;20836;-78
2022/07/14 18:03:51;;;;;;;5.17;4.87;;;23.00;1.00;;;;;;2614102;46;20179;-78
2022/07/14 18:09:39;;;;;;;5.33;4.77;;;22.70;1.00;;;;;;2611322;54;20134;-79
2022/07/14 18:15:27;;;;;;;5.27;4.77;;;22.40;1.00;;;;;;2611500;54;21839;-76
2022/07/14 18:21:28;;;;;;;11.23;5.37;;;22.30;1.00;;;;;;2610528;54;20146;-76
2022/07/14 18:27:15;;;;;;;6.50;4.90;;;22.20;1.00;;;;;;2608155;54;20417;-76
2022/07/14 18:33:03;;;;;;;8.00;5.03;;;;;;;;;;2613407;54;20383;-76
2022/07/14 18:38:51;;;;;;;11.23;5.17;;;21.90;1.00;;;;;;2613822;54;20383;-77
2022/07/14 18:50:43;;;;;;;4.30;3.90;;;21.70;1.00;;;;;;2613103;54;20525;-75
2022/07/14 18:56:31;;;;;;;8.40;3.97;;;21.70;1.00;;;;;;2612561;54;20133;-76
2022/07/14 19:02:21;;;;;;;4.07;3.77;;;21.60;1.00;;;;;;2614235;54;20133;-75
2022/07/14 19:08:08;;;;;;;7.80;4.00;;;21.30;1.00;;;;;;2614085;54;20387;-76
2022/07/14 19:13:56;;;;;;;4.93;4.33;;;21.00;1.00;;;;;;2614620;54;20548;-77
2022/07/14 19:29:53;;;;;;;4.57;3.70;;;20.60;1.00;;;;;;2612542;54;20407;-76
2022/07/14 19:35:41;;;;;;;7.30;3.60;;;20.30;1.00;;;;;;2612874;54;20407;-76
2022/07/14 19:41:28;;;;;;;3.50;3.20;;;20.30;1.00;;;;;;2613479;54;20161;-75
2022/07/14 19:47:17;;;;;;;3.57;3.27;;;20.00;1.00;;;;;;2613009;54;20212;-75
2022/07/14 19:53:04;;;;;;;6.17;3.83;;;20.00;1.50;;;;;;2613285;54;20401;-76
2022/07/14 19:58:52;;;;;;;3.77;3.43;;;19.80;2.80;;;;;;2613674;54;20153;-75
2022/07/14 20:04:39;;;;;;;4.73;3.50;;;19.80;4.00;;;;;;2614839;54;20410;-75
2022/07/14 20:10:27;;;;;;;6.00;3.60;;;19.70;4.20;;;;;;2615293;54;20134;-76
2022/07/14 20:16:15;;;;;;;3.10;2.80;;;19.50;5.30;;;;;;2615093;54;20165;-76
2022/07/14 20:38:19;;;;;;;4.70;3.40;;;19.30;8.70;;;;;;2610632;54;20423;-76
2022/07/14 20:44:06;;;;;;;3.27;2.60;;;19.10;9.70;;;;;;2610576;54;20434;-75
2022/07/14 20:49:53;;;;;;;2.90;2.70;;;19.10;9.50;;;;;;2611952;54;20155;-75
2022/07/14 20:55:41;;;;;;;3.20;2.90;;;;;;;;;;2612749;54;20142;-75
2022/07/14 21:01:28;;;;;;;4.93;3.43;;;18.70;12.70;;;;;;2612221;54;20406;-74
2022/07/14 21:07:16;;;;;;;6.00;3.27;;;18.80;13.00;;;;;;2613562;54;20157;-74
2022/07/14 21:13:04;;;;;;;3.77;3.40;;;18.50;13.30;;;;;;2611106;54;21008;-75
2022/07/14 21:18:52;;;;;;;5.23;3.60;;;18.40;14.30;;;;;;2612437;54;20176;-75
2022/07/14 21:28:03;;;;;;;6.00;4.00;;;18.30;17.10;;;;;;2612716;54;20407;-74
2022/07/14 21:33:52;;;;;;;4.33;3.30;;;18.20;19.80;;;;;;2613412;54;20970;-74
2022/07/14 21:39:40;;;;;;;8.27;3.90;;;18.10;22.60;;;;;;2613703;54;20417;-75
2022/07/14 21:45:28;;;;;;;5.57;4.00;;;17.90;24.30;;;;;;2613308;46;20414;-75
2022/07/14 21:51:16;;;;;;;4.77;3.90;;;17.80;25.10;;;;;;2613956;54;20150;-74
2022/07/14 21:57:04;;;;;;;14.73;4.53;;;17.60;28.00;;;;;;2613584;39;20534;-75
2022/07/14 22:02:52;;;;;;;6.70;4.23;;;17.60;29.00;;;;;;2613573;54;20911;-75
2022/07/14 22:08:40;;;;;;;6.50;4.87;;;17.50;30.90;;;;;;2610935;54;20405;-75
2022/07/14 22:14:27;;;;;;;4.13;3.77;;;17.50;35.50;;;;;;2614860;31;20615;-75
2022/07/14 22:20:15;;;;;;;4.80;3.97;;;17.20;46.00;;;;;;2613566;54;20153;-75
2022/07/14 22:26:16;;;;;;;9.93;4.30;;;17.10;51.80;;;;;;2609522;54;20385;-74
2022/07/14 22:32:04;;;;;;;10.00;4.70;;;17.00;61.80;;;;;;2610185;54;20139;-77
2022/07/14 22:37:52;;;;;;;9.40;4.50;;;;;;;;;;2612932;54;20406;-75
2022/07/14 22:43:39;;;;;;;4.87;4.47;;;16.90;69.30;;;;;;2613183;54;20421;-74
2022/07/14 22:49:27;;;;;;;14.87;5.33;;;16.70;77.80;;;;;;2610200;54;20135;-75
2022/07/14 22:55:14;;;;;;;5.13;4.63;;;16.60;86.20;;;;;;2608698;54;20395;-75
2022/07/14 23:01:02;;;;;;;5.90;4.67;;;16.60;90.10;;;;;;2611926;54;20144;-75
2022/07/14 23:06:50;;;;;;;8.53;5.50;;;16.50;92.30;;;;;;2612691;54;20134;-74
2022/07/14 23:12:38;;;;;;;7.13;4.60;;;16.40;93.90;;;;;;2613184;54;20512;-76
2022/07/14 23:15:42;;;;;;;5.03;4.53;;;16.40;95.60;;;;;;2608853;54;20429;-75
2022/07/14 23:18:09;;;;;;;7.37;4.20;;;16.50;94.80;;;;;;2608356;39;20591;-74
2022/07/14 23:34:10;;;;;;;4.70;4.20;;;16.30;99.90;;;;;;2612075;54;20382;-74
2022/07/14 23:39:57;;;;;;;8.00;5.00;;;16.30;99.90;;;;;;2612772;54;20186;-75
2022/07/14 23:45:45;;;;;;;7.50;4.83;;;16.10;99.90;;;;;;2610875;54;20792;-75
2022/07/14 23:51:32;;;;;;;7.23;5.60;;;16.00;99.90;;;;;;2610302;54;20394;-76
2022/07/14 23:57:20;;;;;;;10.20;5.60;;;16.00;99.90;;;;;;2611706;54;20162;-74
